sensor_id;sensor_type;location;lat;lon;timestamp;pressure;altitude;pressure_sealevel;temperature;humidity
21760;BME280;11041;50.854;20.580;2023-01-27T00:00:53;98910.88;;;-1.76;85.04
21760;BME280;11041;50.854;20.580;2023-01-27T00:03:23;98950.66;;;-1.48;84.86
21760;BME280;11041;50.854;20.580;2023-01-27T00:05:50;98932.25;;;-1.63;85.52
21760;BME280;11041;50.854;20.580;2023-01-27T00:08:17;98943.28;;;-1.53;85.04
21760;BME280;11041;50.854;20.580;2023-01-27T00:10:44;98911.59;;;-1.69;85.47
21760;BME280;11041;50.854;20.580;2023-01-27T00:13:13;98896.25;;;-1.80;85.10
21760;BME280;11041;50.854;20.580;2023-01-27T00:15:52;98920.53;;;-1.57;85.33
21760;BME280;11041;50.854;20.580;2023-01-27T00:18:19;98923.50;;;-1.46;85.32
21760;BME280;11041;50.854;20.580;2023-01-27T00:20:46;98884.91;;;-1.82;84.56
21760;BME280;11041;50.854;20.580;2023-01-27T00:23:31;98938.56;;;-1.57;84.87
21760;BME280;11041;50.854;20.580;2023-01-27T00:26:18;98940.66;;;-1.71;85.13
21760;BME280;11041;50.854;20.580;2023-01-27T00:28:46;98941.13;;;-1.74;85.87
21760;BME280;11041;50.854;20.580;2023-01-27T00:31:16;98938.88;;;-1.77;85.78
21760;BME280;11041;50.854;20.580;2023-01-27T00:34:01;98878.22;;;-2.22;86.25
21760;BME280;11041;50.854;20.580;2023-01-27T00:36:36;98935.34;;;-1.89;85.71
21760;BME280;11041;50.854;20.580;2023-01-27T00:39:06;98943.66;;;-1.91;86.02
21760;BME280;11041;50.854;20.580;2023-01-27T00:41:34;98950.13;;;-1.80;85.53
21760;BME280;11041;50.854;20.580;2023-01-27T00:44:01;98934.38;;;-1.95;85.57
21760;BME280;11041;50.854;20.580;2023-01-27T00:46:31;98954.31;;;-1.84;85.57
21760;BME280;11041;50.854;20.580;2023-01-27T00:48:58;98949.66;;;-1.77;85.57
21760;BME280;11041;50.854;20.580;2023-01-27T00:51:24;98932.19;;;-1.86;85.90
21760;BME280;11041;50.854;20.580;2023-01-27T00:53:51;98956.50;;;-1.63;85.95
21760;BME280;11041;50.854;20.580;2023-01-27T00:56:17;98974.06;;;-1.60;85.52
21760;BME280;11041;50.854;20.580;2023-01-27T00:58:44;98936.31;;;-1.72;85.43
21760;BME280;11041;50.854;20.580;2023-01-27T01:01:14;98946.63;;;-1.69;85.36
21760;BME280;11041;50.854;20.580;2023-01-27T01:03:42;98931.72;;;-1.83;84.92
21760;BME280;11041;50.854;20.580;2023-01-27T01:06:12;98965.63;;;-1.64;84.58
21760;BME280;11041;50.854;20.580;2023-01-27T01:08:39;98953.09;;;-1.70;85.00
21760;BME280;11041;50.854;20.580;2023-01-27T01:11:11;98932.66;;;-1.89;85.11
21760;BME280;11041;50.854;20.580;2023-01-27T01:13:40;98913.38;;;-2.05;85.22
21760;BME280;11041;50.854;20.580;2023-01-27T01:16:20;98923.25;;;-1.99;85.28
21760;BME280;11041;50.854;20.580;2023-01-27T01:18:48;98948.22;;;-1.91;85.59
21760;BME280;11041;50.854;20.580;2023-01-27T01:21:15;98926.03;;;-2.05;85.45
21760;BME280;11041;50.854;20.580;2023-01-27T01:23:44;98948.09;;;-1.97;85.52
21760;BME280;11041;50.854;20.580;2023-01-27T01:26:14;98921.78;;;-2.13;85.10
21760;BME280;11041;50.854;20.580;2023-01-27T01:28:43;98950.88;;;-2.03;85.26
21760;BME280;11041;50.854;20.580;2023-01-27T01:31:14;98933.66;;;-2.02;85.30
21760;BME280;11041;50.854;20.580;2023-01-27T01:33:41;98928.94;;;-2.07;85.24
21760;BME280;11041;50.854;20.580;2023-01-27T01:36:12;98925.00;;;-2.04;85.43
21760;BME280;11041;50.854;20.580;2023-01-27T01:38:39;98932.63;;;-2.01;84.92
21760;BME280;11041;50.854;20.580;2023-01-27T01:41:12;98933.81;;;-1.97;85.28
21760;BME280;11041;50.854;20.580;2023-01-27T01:43:39;98940.81;;;-1.96;85.13
21760;BME280;11041;50.854;20.580;2023-01-27T01:46:09;98939.41;;;-1.99;85.09
21760;BME280;11041;50.854;20.580;2023-01-27T01:48:53;98929.66;;;-2.11;85.09
21760;BME280;11041;50.854;20.580;2023-01-27T01:51:30;98955.44;;;-2.04;85.63
21760;BME280;11041;50.854;20.580;2023-01-27T01:54:07;98955.66;;;-2.05;85.92
21760;BME280;11041;50.854;20.580;2023-01-27T01:57:07;98949.66;;;-2.07;85.98
21760;BME280;11041;50.854;20.580;2023-01-27T01:59:44;98940.66;;;-2.13;85.89
21760;BME280;11041;50.854;20.580;2023-01-27T02:02:17;98937.34;;;-2.15;85.79
21760;BME280;11041;50.854;20.580;2023-01-27T02:04:56;98920.94;;;-2.25;86.50
21760;BME280;11041;50.854;20.580;2023-01-27T02:07:35;98939.91;;;-2.20;86.33
21760;BME280;11041;50.854;20.580;2023-01-27T02:10:05;98950.59;;;-2.13;86.30
21760;BME280;11041;50.854;20.580;2023-01-27T02:12:32;98947.91;;;-2.13;86.72
21760;BME280;11041;50.854;20.580;2023-01-27T02:14:58;98914.56;;;-2.31;86.66
21760;BME280;11041;50.854;20.580;2023-01-27T02:17:25;98929.59;;;-2.23;86.08
21760;BME280;11041;50.854;20.580;2023-01-27T02:28:59;98930.63;;;-2.24;86.90
21760;BME280;11041;50.854;20.580;2023-01-27T02:31:26;98927.34;;;-2.26;87.28
21760;BME280;11041;50.854;20.580;2023-01-27T02:34:02;98926.81;;;-2.17;87.28
21760;BME280;11041;50.854;20.580;2023-01-27T02:36:36;98917.00;;;-2.11;86.68
21760;BME280;11041;50.854;20.580;2023-01-27T02:39:07;98895.09;;;-2.15;86.00
21760;BME280;11041;50.854;20.580;2023-01-27T02:41:51;98916.94;;;-1.93;85.65
21760;BME280;11041;50.854;20.580;2023-01-27T02:44:18;98899.84;;;-1.98;85.15
21760;BME280;11041;50.854;20.580;2023-01-27T02:46:45;98919.06;;;-1.83;84.66
21760;BME280;11041;50.854;20.580;2023-01-27T02:49:12;98903.03;;;-1.89;82.94
21760;BME280;11041;50.854;20.580;2023-01-27T02:51:39;98914.41;;;-1.87;83.03
21760;BME280;11041;50.854;20.580;2023-01-27T02:54:06;98857.66;;;-2.16;82.56
21760;BME280;11041;50.854;20.580;2023-01-27T02:56:33;98852.41;;;-2.11;81.73
21760;BME280;11041;50.854;20.580;2023-01-27T02:58:59;98902.91;;;-1.83;82.21
21760;BME280;11041;50.854;20.580;2023-01-27T03:01:26;98914.06;;;-1.67;81.43
21760;BME280;11041;50.854;20.580;2023-01-27T03:03:52;98909.72;;;-1.68;81.98
21760;BME280;11041;50.854;20.580;2023-01-27T03:06:19;98915.28;;;-1.63;81.60
21760;BME280;11041;50.854;20.580;2023-01-27T03:08:46;98912.91;;;-1.60;80.98
21760;BME280;11041;50.854;20.580;2023-01-27T03:11:12;98918.69;;;-1.56;81.19
21760;BME280;11041;50.854;20.580;2023-01-27T03:13:40;98897.41;;;-1.76;80.50
21760;BME280;11041;50.854;20.580;2023-01-27T03:16:07;98917.00;;;-1.69;79.66
21760;BME280;11041;50.854;20.580;2023-01-27T03:18:52;98906.56;;;-1.77;78.96
21760;BME280;11041;50.854;20.580;2023-01-27T03:21:21;98904.56;;;-1.82;79.27
21760;BME280;11041;50.854;20.580;2023-01-27T03:23:48;98912.41;;;-1.80;78.63
21760;BME280;11041;50.854;20.580;2023-01-27T03:26:14;98931.66;;;-1.65;78.29
21760;BME280;11041;50.854;20.580;2023-01-27T03:28:41;98936.44;;;-1.67;78.41
21760;BME280;11041;50.854;20.580;2023-01-27T03:31:10;98938.66;;;-1.64;78.17
21760;BME280;11041;50.854;20.580;2023-01-27T03:33:47;98926.13;;;-1.70;77.70
21760;BME280;11041;50.854;20.580;2023-01-27T03:36:14;98947.72;;;-1.58;78.07
21760;BME280;11041;50.854;20.580;2023-01-27T03:39:00;98935.75;;;-1.62;77.75
21760;BME280;11041;50.854;20.580;2023-01-27T03:41:45;98935.50;;;-1.73;77.87
21760;BME280;11041;50.854;20.580;2023-01-27T03:44:30;98947.09;;;-1.72;77.72
21760;BME280;11041;50.854;20.580;2023-01-27T03:47:16;98946.41;;;-1.67;78.66
21760;BME280;11041;50.854;20.580;2023-01-27T03:49:43;98939.16;;;-1.67;78.66
21760;BME280;11041;50.854;20.580;2023-01-27T03:52:09;98932.56;;;-1.71;78.05
21760;BME280;11041;50.854;20.580;2023-01-27T03:54:36;98918.13;;;-1.88;78.36
21760;BME280;11041;50.854;20.580;2023-01-27T03:57:02;98928.94;;;-1.77;78.93
21760;BME280;11041;50.854;20.580;2023-01-27T03:59:31;98909.69;;;-1.92;79.20
21760;BME280;11041;50.854;20.580;2023-01-27T04:01:59;98921.63;;;-1.88;79.19
21760;BME280;11041;50.854;20.580;2023-01-27T04:04:44;98930.31;;;-1.86;79.16
21760;BME280;11041;50.854;20.580;2023-01-27T04:07:29;98943.81;;;-1.74;79.93
21760;BME280;11041;50.854;20.580;2023-01-27T04:09:56;98948.97;;;-1.73;79.41
21760;BME280;11041;50.854;20.580;2023-01-27T04:12:22;98955.78;;;-1.70;79.94
21760;BME280;11041;50.854;20.580;2023-01-27T04:14:49;98945.09;;;-1.77;79.95
21760;BME280;11041;50.854;20.580;2023-01-27T04:17:18;98933.00;;;-1.86;79.78
21760;BME280;11041;50.854;20.580;2023-01-27T04:19:45;98935.22;;;-1.95;80.16
21760;BME280;11041;50.854;20.580;2023-01-27T04:22:14;98954.69;;;-1.81;80.85
21760;BME280;11041;50.854;20.580;2023-01-27T04:24:42;98965.09;;;-1.84;80.27
21760;BME280;11041;50.854;20.580;2023-01-27T04:27:13;98945.41;;;-1.97;80.64
21760;BME280;11041;50.854;20.580;2023-01-27T04:29:41;98965.09;;;-1.84;81.15
21760;BME280;11041;50.854;20.580;2023-01-27T04:32:11;98963.00;;;-1.82;81.29
21760;BME280;11041;50.854;20.580;2023-01-27T04:34:39;98967.13;;;-1.80;80.92
21760;BME280;11041;50.854;20.580;2023-01-27T04:37:08;98967.47;;;-1.76;81.55
21760;BME280;11041;50.854;20.580;2023-01-27T04:39:35;98968.75;;;-1.79;81.29
21760;BME280;11041;50.854;20.580;2023-01-27T04:42:02;98938.47;;;-1.93;81.08
21760;BME280;11041;50.854;20.580;2023-01-27T04:44:30;98953.72;;;-1.86;81.17
21760;BME280;11041;50.854;20.580;2023-01-27T04:46:56;98969.94;;;-1.75;81.19
21760;BME280;11041;50.854;20.580;2023-01-27T04:49:23;98973.91;;;-1.77;81.35
21760;BME280;11041;50.854;20.580;2023-01-27T04:51:51;98964.03;;;-1.83;81.44
21760;BME280;11041;50.854;20.580;2023-01-27T04:54:18;98959.00;;;-1.91;81.49
21760;BME280;11041;50.854;20.580;2023-01-27T04:56:59;98971.69;;;-1.80;80.91
21760;BME280;11041;50.854;20.580;2023-01-27T04:59:26;98977.06;;;-1.80;81.35
21760;BME280;11041;50.854;20.580;2023-01-27T05:01:53;98985.16;;;-1.80;81.18
21760;BME280;11041;50.854;20.580;2023-01-27T05:04:20;98947.56;;;-2.05;81.07
21760;BME280;11041;50.854;20.580;2023-01-27T05:06:46;98953.88;;;-2.11;81.18
21760;BME280;11041;50.854;20.580;2023-01-27T05:09:13;98957.84;;;-2.14;81.78
21760;BME280;11041;50.854;20.580;2023-01-27T05:11:39;98959.09;;;-2.17;82.20
21760;BME280;11041;50.854;20.580;2023-01-27T05:14:06;98983.84;;;-2.08;82.72
21760;BME280;11041;50.854;20.580;2023-01-27T05:16:32;98969.13;;;-2.05;83.02
21760;BME280;11041;50.854;20.580;2023-01-27T05:18:59;98961.13;;;-2.12;82.73
21760;BME280;11041;50.854;20.580;2023-01-27T05:21:25;98965.00;;;-2.08;82.57
21760;BME280;11041;50.854;20.580;2023-01-27T05:23:56;98978.53;;;-1.96;82.16
21760;BME280;11041;50.854;20.580;2023-01-27T05:26:26;98984.72;;;-1.96;82.34
21760;BME280;11041;50.854;20.580;2023-01-27T05:28:55;98972.03;;;-2.07;82.72
21760;BME280;11041;50.854;20.580;2023-01-27T05:31:26;99012.94;;;-1.98;83.47
21760;BME280;11041;50.854;20.580;2023-01-27T05:33:55;98989.69;;;-2.11;83.14
21760;BME280;11041;50.854;20.580;2023-01-27T05:36:24;99002.03;;;-2.03;83.53
21760;BME280;11041;50.854;20.580;2023-01-27T05:38:53;99004.72;;;-2.03;83.87
21760;BME280;11041;50.854;20.580;2023-01-27T05:41:22;99002.25;;;-2.05;83.56
21760;BME280;11041;50.854;20.580;2023-01-27T05:43:54;99000.41;;;-2.04;84.31
21760;BME280;11041;50.854;20.580;2023-01-27T05:46:27;98979.63;;;-2.16;84.25
21760;BME280;11041;50.854;20.580;2023-01-27T05:49:00;99000.41;;;-1.93;84.01
21760;BME280;11041;50.854;20.580;2023-01-27T05:51:35;98992.03;;;-1.84;83.96
21760;BME280;11041;50.854;20.580;2023-01-27T05:54:03;98987.25;;;-1.82;83.33
21760;BME280;11041;50.854;20.580;2023-01-27T05:56:30;98996.88;;;-1.75;84.07
21760;BME280;11041;50.854;20.580;2023-01-27T05:58:59;98995.13;;;-1.69;83.52
21760;BME280;11041;50.854;20.580;2023-01-27T06:01:30;99003.34;;;-1.64;83.66
21760;BME280;11041;50.854;20.580;2023-01-27T06:04:00;99005.00;;;-1.63;83.23
21760;BME280;11041;50.854;20.580;2023-01-27T06:06:31;98992.00;;;-1.66;82.98
21760;BME280;11041;50.854;20.580;2023-01-27T06:08:59;98985.41;;;-1.70;83.28
21760;BME280;11041;50.854;20.580;2023-01-27T06:11:28;99008.16;;;-1.54;83.52
21760;BME280;11041;50.854;20.580;2023-01-27T06:13:55;99007.00;;;-1.58;83.06
21760;BME280;11041;50.854;20.580;2023-01-27T06:16:23;98989.47;;;-1.79;82.89
21760;BME280;11041;50.854;20.580;2023-01-27T06:18:50;99012.41;;;-1.58;83.40
21760;BME280;11041;50.854;20.580;2023-01-27T06:21:17;99012.16;;;-1.57;82.87
21760;BME280;11041;50.854;20.580;2023-01-27T06:23:46;99011.19;;;-1.62;82.82
21760;BME280;11041;50.854;20.580;2023-01-27T06:26:17;98993.91;;;-1.85;82.77
21760;BME280;11041;50.854;20.580;2023-01-27T06:28:46;99018.78;;;-1.71;82.69
21760;BME280;11041;50.854;20.580;2023-01-27T06:31:21;99003.56;;;-1.96;82.91
21760;BME280;11041;50.854;20.580;2023-01-27T06:33:50;99025.84;;;-1.88;83.06
21760;BME280;11041;50.854;20.580;2023-01-27T06:36:20;99034.53;;;-1.86;83.08
21760;BME280;11041;50.854;20.580;2023-01-27T06:38:49;99034.75;;;-1.88;83.15
21760;BME280;11041;50.854;20.580;2023-01-27T06:41:18;99013.41;;;-2.01;83.43
21760;BME280;11041;50.854;20.580;2023-01-27T06:43:46;99028.53;;;-1.88;82.76
21760;BME280;11041;50.854;20.580;2023-01-27T06:46:16;99033.59;;;-1.92;83.48
21760;BME280;11041;50.854;20.580;2023-01-27T06:48:44;99038.44;;;-1.82;83.68
21760;BME280;11041;50.854;20.580;2023-01-27T06:51:11;98993.34;;;-2.05;83.26
21760;BME280;11041;50.854;20.580;2023-01-27T06:53:39;99000.16;;;-2.03;83.42
21760;BME280;11041;50.854;20.580;2023-01-27T06:56:07;99019.13;;;-1.98;83.59
21760;BME280;11041;50.854;20.580;2023-01-27T06:58:34;99054.66;;;-1.70;83.95
21760;BME280;11041;50.854;20.580;2023-01-27T07:01:04;99048.78;;;-1.67;83.98
21760;BME280;11041;50.854;20.580;2023-01-27T07:03:33;99044.81;;;-1.65;83.77
21760;BME280;11041;50.854;20.580;2023-01-27T07:06:01;99035.41;;;-1.74;83.97
21760;BME280;11041;50.854;20.580;2023-01-27T07:08:31;99036.78;;;-1.53;84.36
21760;BME280;11041;50.854;20.580;2023-01-27T07:11:06;99039.56;;;-1.60;82.83
21760;BME280;11041;50.854;20.580;2023-01-27T07:13:36;99050.47;;;-1.55;83.63
21760;BME280;11041;50.854;20.580;2023-01-27T07:16:04;99048.31;;;-1.64;83.47
21760;BME280;11041;50.854;20.580;2023-01-27T07:18:31;99064.19;;;-1.56;82.52
21760;BME280;11041;50.854;20.580;2023-01-27T07:20:59;99064.41;;;-1.58;82.82
21760;BME280;11041;50.854;20.580;2023-01-27T07:23:26;99077.41;;;-1.55;82.11
21760;BME280;11041;50.854;20.580;2023-01-27T07:25:56;99073.22;;;-1.51;82.16
21760;BME280;11041;50.854;20.580;2023-01-27T07:28:26;99069.84;;;-1.46;82.51
21760;BME280;11041;50.854;20.580;2023-01-27T07:31:04;99059.84;;;-1.57;80.66
21760;BME280;11041;50.854;20.580;2023-01-27T07:33:33;99087.06;;;-1.47;81.27
21760;BME280;11041;50.854;20.580;2023-01-27T07:36:00;99083.19;;;-1.51;80.86
21760;BME280;11041;50.854;20.580;2023-01-27T07:38:27;99058.41;;;-1.60;80.49
21760;BME280;11041;50.854;20.580;2023-01-27T07:40:53;99079.69;;;-1.40;81.16
21760;BME280;11041;50.854;20.580;2023-01-27T07:43:20;99089.34;;;-1.32;80.73
21760;BME280;11041;50.854;20.580;2023-01-27T07:45:53;99084.91;;;-1.26;81.26
21760;BME280;11041;50.854;20.580;2023-01-27T07:48:20;99066.13;;;-1.33;80.17
21760;BME280;11041;50.854;20.580;2023-01-27T07:50:48;99082.31;;;-1.33;79.03
21760;BME280;11041;50.854;20.580;2023-01-27T07:53:18;99073.03;;;-1.37;78.87
21760;BME280;11041;50.854;20.580;2023-01-27T07:55:46;99070.47;;;-1.32;79.98
21760;BME280;11041;50.854;20.580;2023-01-27T07:58:14;99049.09;;;-1.45;79.45
21760;BME280;11041;50.854;20.580;2023-01-27T08:00:42;99041.44;;;-1.60;78.85
21760;BME280;11041;50.854;20.580;2023-01-27T08:03:23;99080.53;;;-1.39;79.95
21760;BME280;11041;50.854;20.580;2023-01-27T08:05:51;99079.84;;;-1.35;80.59
21760;BME280;11041;50.854;20.580;2023-01-27T08:08:20;99073.19;;;-1.32;80.26
21760;BME280;11041;50.854;20.580;2023-01-27T08:10:58;99055.59;;;-1.35;80.75
21760;BME280;11041;50.854;20.580;2023-01-27T08:13:26;99057.22;;;-1.34;80.95
21760;BME280;11041;50.854;20.580;2023-01-27T08:15:57;99057.56;;;-1.30;81.26
21760;BME280;11041;50.854;20.580;2023-01-27T08:18:26;99050.69;;;-1.26;81.63
21760;BME280;11041;50.854;20.580;2023-01-27T08:20:57;99068.06;;;-1.10;81.83
21760;BME280;11041;50.854;20.580;2023-01-27T08:23:25;99057.38;;;-1.17;81.95
21760;BME280;11041;50.854;20.580;2023-01-27T08:25:56;99067.78;;;-1.20;83.01
21760;BME280;11041;50.854;20.580;2023-01-27T08:28:27;99072.03;;;-1.24;83.56
21760;BME280;11041;50.854;20.580;2023-01-27T08:31:06;99046.06;;;-1.49;84.05
21760;BME280;11041;50.854;20.580;2023-01-27T08:33:34;99051.72;;;-1.39;84.96
21760;BME280;11041;50.854;20.580;2023-01-27T08:36:08;99070.50;;;-1.20;84.37
21760;BME280;11041;50.854;20.580;2023-01-27T08:38:37;99071.94;;;-1.18;85.23
21760;BME280;11041;50.854;20.580;2023-01-27T08:41:12;99070.41;;;-1.14;85.03
21760;BME280;11041;50.854;20.580;2023-01-27T08:43:42;99049.63;;;-1.25;84.55
21760;BME280;11041;50.854;20.580;2023-01-27T08:46:09;99064.78;;;-1.12;84.25
21760;BME280;11041;50.854;20.580;2023-01-27T08:48:38;99044.81;;;-1.23;84.58
21760;BME280;11041;50.854;20.580;2023-01-27T08:51:07;99071.72;;;-1.04;84.26
21760;BME280;11041;50.854;20.580;2023-01-27T08:53:35;99068.50;;;-1.13;84.32
21760;BME280;11041;50.854;20.580;2023-01-27T08:56:11;99053.47;;;-1.33;84.17
21760;BME280;11041;50.854;20.580;2023-01-27T08:58:40;99074.94;;;-1.26;83.35
21760;BME280;11041;50.854;20.580;2023-01-27T09:01:09;99038.28;;;-1.57;83.58
21760;BME280;11041;50.854;20.580;2023-01-27T09:03:37;99066.47;;;-1.41;83.58
21760;BME280;11041;50.854;20.580;2023-01-27T09:06:09;99055.84;;;-1.55;83.79
21760;BME280;11041;50.854;20.580;2023-01-27T09:08:37;99081.72;;;-1.35;83.75
21760;BME280;11041;50.854;20.580;2023-01-27T09:11:22;99093.69;;;-1.31;83.53
21760;BME280;11041;50.854;20.580;2023-01-27T09:13:49;99076.81;;;-1.26;82.77
21760;BME280;11041;50.854;20.580;2023-01-27T09:16:17;99045.34;;;-1.44;82.51
21760;BME280;11041;50.854;20.580;2023-01-27T09:18:44;99062.25;;;-1.37;82.45
21760;BME280;11041;50.854;20.580;2023-01-27T09:21:11;99073.66;;;-1.23;82.76
21760;BME280;11041;50.854;20.580;2023-01-27T09:23:39;99058.50;;;-1.36;81.34
21760;BME280;11041;50.854;20.580;2023-01-27T09:26:06;99057.09;;;-1.39;80.38
21760;BME280;11041;50.854;20.580;2023-01-27T09:28:33;99066.50;;;-1.30;80.79
21760;BME280;11041;50.854;20.580;2023-01-27T09:31:00;99081.56;;;-1.10;81.19
21760;BME280;11041;50.854;20.580;2023-01-27T09:33:28;99083.91;;;-1.02;81.10
21760;BME280;11041;50.854;20.580;2023-01-27T09:36:13;99061.50;;;-1.14;80.34
21760;BME280;11041;50.854;20.580;2023-01-27T09:39:03;99050.59;;;-1.19;79.61
21760;BME280;11041;50.854;20.580;2023-01-27T09:44:52;99073.63;;;-0.93;78.78
21760;BME280;11041;50.854;20.580;2023-01-27T09:53:58;99099.44;;;-0.74;76.70
21760;BME280;11041;50.854;20.580;2023-01-27T09:59:50;99072.22;;;-0.84;76.64
21760;BME280;11041;50.854;20.580;2023-01-27T10:09:04;99108.72;;;-0.81;75.70
21760;BME280;11041;50.854;20.580;2023-01-27T10:18:23;99114.81;;;-0.74;75.63
21760;BME280;11041;50.854;20.580;2023-01-27T10:27:25;99106.25;;;-0.59;74.76
21760;BME280;11041;50.854;20.580;2023-01-27T10:30:16;99106.75;;;-0.62;73.43
21760;BME280;11041;50.854;20.580;2023-01-27T10:36:07;99083.25;;;-0.74;73.66
21760;BME280;11041;50.854;20.580;2023-01-27T10:39:38;99108.25;;;-0.67;73.22
21760;BME280;11041;50.854;20.580;2023-01-27T10:42:35;99112.59;;;-0.66;73.71
21760;BME280;11041;50.854;20.580;2023-01-27T10:45:41;99115.75;;;-0.69;74.24
21760;BME280;11041;50.854;20.580;2023-01-27T10:51:46;99114.97;;;-0.46;73.53
21760;BME280;11041;50.854;20.580;2023-01-27T10:54:42;99100.28;;;-0.38;72.12
21760;BME280;11041;50.854;20.580;2023-01-27T10:57:21;99090.78;;;-0.52;72.17
21760;BME280;11041;50.854;20.580;2023-01-27T11:00:13;99116.72;;;-0.39;71.11
21760;BME280;11041;50.854;20.580;2023-01-27T11:03:25;99114.00;;;-0.51;71.63
21760;BME280;11041;50.854;20.580;2023-01-27T11:06:06;99101.56;;;-0.52;72.39
21760;BME280;11041;50.854;20.580;2023-01-27T11:08:42;99107.53;;;-0.27;73.12
21760;BME280;11041;50.854;20.580;2023-01-27T11:11:12;99087.22;;;-0.29;72.81
21760;BME280;11041;50.854;20.580;2023-01-27T11:17:40;99090.88;;;-0.12;72.73
21760;BME280;11041;50.854;20.580;2023-01-27T11:20:38;99091.81;;;-0.18;71.98
21760;BME280;11041;50.854;20.580;2023-01-27T11:23:32;99092.53;;;-0.23;72.22
21760;BME280;11041;50.854;20.580;2023-01-27T11:26:26;99085.81;;;-0.32;71.99
21760;BME280;11041;50.854;20.580;2023-01-27T11:29:38;99081.97;;;-0.48;72.90
21760;BME280;11041;50.854;20.580;2023-01-27T11:35:14;99054.59;;;-0.75;74.16
21760;BME280;11041;50.854;20.580;2023-01-27T11:37:50;99089.13;;;-0.53;74.58
21760;BME280;11041;50.854;20.580;2023-01-27T11:40:33;99077.06;;;-0.62;74.77
21760;BME280;11041;50.854;20.580;2023-01-27T11:43:03;99087.59;;;-0.61;75.33
21760;BME280;11041;50.854;20.580;2023-01-27T11:45:35;99096.38;;;-0.66;75.65
21760;BME280;11041;50.854;20.580;2023-01-27T11:48:10;99091.56;;;-0.75;75.59
21760;BME280;11041;50.854;20.580;2023-01-27T11:50:42;99081.13;;;-0.83;75.36
21760;BME280;11041;50.854;20.580;2023-01-27T11:53:25;99087.47;;;-0.78;75.01
21760;BME280;11041;50.854;20.580;2023-01-27T11:56:14;99089.47;;;-0.73;76.23
21760;BME280;11041;50.854;20.580;2023-01-27T11:58:53;99077.59;;;-0.72;75.77
21760;BME280;11041;50.854;20.580;2023-01-27T12:01:38;99109.41;;;-0.51;75.91
21760;BME280;11041;50.854;20.580;2023-01-27T12:07:16;99057.19;;;-0.45;75.13
21760;BME280;11041;50.854;20.580;2023-01-27T12:09:44;99088.53;;;-0.32;74.44
21760;BME280;11041;50.854;20.580;2023-01-27T12:12:24;99053.31;;;-0.37;75.17
21760;BME280;11041;50.854;20.580;2023-01-27T12:14:56;99058.59;;;-0.30;74.51
21760;BME280;11041;50.854;20.580;2023-01-27T12:17:51;99060.22;;;-0.17;74.98
21760;BME280;11041;50.854;20.580;2023-01-27T12:23:20;99049.50;;;-0.12;72.79
21760;BME280;11041;50.854;20.580;2023-01-27T12:25:49;99068.78;;;-0.09;73.07
21760;BME280;11041;50.854;20.580;2023-01-27T12:31:29;99083.41;;;0.07;72.25
21760;BME280;11041;50.854;20.580;2023-01-27T12:36:52;99075.59;;;-0.06;70.27
21760;BME280;11041;50.854;20.580;2023-01-27T12:39:44;99088.50;;;0.04;70.49
21760;BME280;11041;50.854;20.580;2023-01-27T12:42:41;99062.78;;;-0.11;69.48
21760;BME280;11041;50.854;20.580;2023-01-27T12:45:29;99081.59;;;-0.04;69.95
21760;BME280;11041;50.854;20.580;2023-01-27T12:48:19;99063.28;;;-0.14;70.24
21760;BME280;11041;50.854;20.580;2023-01-27T12:53:24;99062.00;;;-0.23;69.98
21760;BME280;11041;50.854;20.580;2023-01-27T12:56:12;99086.78;;;-0.14;69.96
21760;BME280;11041;50.854;20.580;2023-01-27T13:01:34;99072.09;;;-0.42;71.77
21760;BME280;11041;50.854;20.580;2023-01-27T13:04:19;99093.00;;;-0.37;72.40
21760;BME280;11041;50.854;20.580;2023-01-27T13:06:56;99076.59;;;-0.48;72.80
21760;BME280;11041;50.854;20.580;2023-01-27T13:09:37;99061.56;;;-0.55;73.04
21760;BME280;11041;50.854;20.580;2023-01-27T13:12:29;99064.72;;;-0.58;73.19
21760;BME280;11041;50.854;20.580;2023-01-27T13:15:05;99093.47;;;-0.52;73.58
21760;BME280;11041;50.854;20.580;2023-01-27T13:17:41;99090.53;;;-0.62;73.84
21760;BME280;11041;50.854;20.580;2023-01-27T13:23:22;99098.50;;;-0.68;72.93
21760;BME280;11041;50.854;20.580;2023-01-27T13:26:18;99074.94;;;-0.84;72.79
21760;BME280;11041;50.854;20.580;2023-01-27T13:32:10;99104.59;;;-0.72;71.56
21760;BME280;11041;50.854;20.580;2023-01-27T13:37:50;99112.44;;;-0.82;71.64
21760;BME280;11041;50.854;20.580;2023-01-27T13:40:29;99101.19;;;-0.91;72.18
21760;BME280;11041;50.854;20.580;2023-01-27T13:45:44;99088.13;;;-0.94;72.83
21760;BME280;11041;50.854;20.580;2023-01-27T13:48:31;99090.81;;;-1.06;72.61
21760;BME280;11041;50.854;20.580;2023-01-27T13:51:17;99133.28;;;-1.01;73.23
21760;BME280;11041;50.854;20.580;2023-01-27T13:53:47;99102.28;;;-1.22;73.31
21760;BME280;11041;50.854;20.580;2023-01-27T14:02:47;99132.94;;;-1.05;73.14
21760;BME280;11041;50.854;20.580;2023-01-27T14:06:42;99141.03;;;-1.05;73.46
21760;BME280;11041;50.854;20.580;2023-01-27T14:17:10;99142.94;;;-1.24;73.68
21760;BME280;11041;50.854;20.580;2023-01-27T14:23:00;99111.91;;;-1.45;72.56
21760;BME280;11041;50.854;20.580;2023-01-27T14:31:18;99114.53;;;-1.57;72.52
21760;BME280;11041;50.854;20.580;2023-01-27T14:37:42;99140.41;;;-1.37;71.09
21760;BME280;11041;50.854;20.580;2023-01-27T14:40:19;99132.25;;;-1.31;70.61
21760;BME280;11041;50.854;20.580;2023-01-27T14:45:51;99126.28;;;-1.21;71.47
21760;BME280;11041;50.854;20.580;2023-01-27T14:48:37;99131.69;;;-1.21;71.10
21760;BME280;11041;50.854;20.580;2023-01-27T14:54:43;99140.16;;;-1.17;71.83
21760;BME280;11041;50.854;20.580;2023-01-27T15:00:23;99147.06;;;-1.21;71.67
21760;BME280;11041;50.854;20.580;2023-01-27T15:03:07;99137.63;;;-1.31;71.60
21760;BME280;11041;50.854;20.580;2023-01-27T15:10:01;99130.88;;;-1.21;72.26
21760;BME280;11041;50.854;20.580;2023-01-27T15:16:39;99130.97;;;-1.28;71.46
21760;BME280;11041;50.854;20.580;2023-01-27T15:22:42;99140.16;;;-1.17;71.91
21760;BME280;11041;50.854;20.580;2023-01-27T15:25:25;99140.63;;;-1.09;72.08
21760;BME280;11041;50.854;20.580;2023-01-27T15:27:56;99119.63;;;-1.18;72.00
21760;BME280;11041;50.854;20.580;2023-01-27T15:30:34;99113.53;;;-1.14;71.95
21760;BME280;11041;50.854;20.580;2023-01-27T15:33:47;99136.09;;;-0.96;71.00
21760;BME280;11041;50.854;20.580;2023-01-27T15:36:29;99133.06;;;-1.00;71.16